Time;durP1;ratioP1;P1;durP2;ratioP2;P2;SDS_P1;SDS_P2;PMS_P1;PMS_P2;Temp;Humidity;BMP_temperature;BMP_pressure;BME280_temperature;BME280_humidity;BME280_pressure;Samples;Min_cycle;Max_cycle;Signal;HPM_P1;HPM_P2
2022/11/22 00:08:01;;;;;;;2.17;2.08;;;0.50;99.90;;;;;;4621154;30;20050;-93
2022/11/22 00:16:13;;;;;;;2.95;2.75;;;0.30;99.90;;;;;;4602249;31;20067;-93
2022/11/22 00:20:31;;;;;;;3.83;3.53;;;0.40;99.90;;;;;;4565236;31;20644;-93
2022/11/22 00:23:55;;;;;;;2.30;2.20;;;0.50;99.90;;;;;;4559466;31;20109;-93
2022/11/22 00:27:35;;;;;;;3.90;2.80;;;0.60;99.90;;;;;;4549959;31;20056;-93
2022/11/22 00:31:48;;;;;;;;;;;;;;;;;;;;;
2022/11/22 03:42:11;;;;;;;5.68;2.72;;;1.90;99.90;;;;;;5654525;25;20028;-82
2022/11/22 03:44:46;;;;;;;5.20;2.75;;;1.90;99.90;;;;;;4716074;30;20057;-82
2022/11/22 04:28:33;;;;;;;;;;;;;;;;;;;;;
2022/11/22 04:36:33;;;;;;;2.85;1.73;;;2.70;99.90;;;;;;4619258;30;20055;-95
2022/11/22 04:40:08;;;;;;;6.85;2.53;;;2.90;99.90;;;;;;4608214;31;20145;-93
2022/11/22 04:54:42;;;;;;;8.35;3.70;;;2.30;99.90;;;;;;4634811;30;20066;-93
2022/11/22 04:57:46;;;;;;;3.47;3.00;;;2.30;99.90;;;;;;4646677;30;20065;-93
2022/11/22 05:00:56;;;;;;;3.92;3.38;;;2.20;99.90;;;;;;4645234;30;20046;-92
2022/11/22 05:03:52;;;;;;;3.40;3.10;;;2.20;99.90;;;;;;4671491;30;20057;-93
2022/11/22 05:06:59;;;;;;;3.72;3.30;;;2.20;99.90;;;;;;4672157;30;20053;-95
2022/11/22 05:09:51;;;;;;;3.28;2.97;;;2.20;99.90;;;;;;4690371;30;20083;-94
2022/11/22 05:12:58;;;;;;;3.67;2.92;;;2.10;99.90;;;;;;4641873;30;20053;-93
2022/11/22 05:15:48;;;;;;;4.53;4.18;;;2.10;99.90;;;;;;4623938;30;20047;-93
2022/11/22 05:18:31;;;;;;;3.63;3.42;;;1.90;99.90;;;;;;4638441;30;20070;-93
2022/11/22 05:22:15;;;;;;;3.85;3.47;;;1.90;99.90;;;;;;4630518;30;20448;-93
2022/11/22 05:25:43;;;;;;;4.32;3.40;;;1.90;99.90;;;;;;4645999;30;20061;-93
2022/11/22 05:28:49;;;;;;;3.92;3.67;;;1.90;99.90;;;;;;4634040;30;20047;-94
2022/11/22 05:32:45;;;;;;;3.78;3.25;;;1.80;99.90;;;;;;4631620;30;20057;-93
2022/11/22 05:40:40;;;;;;;3.55;3.25;;;1.80;99.90;;;;;;4660361;30;20305;-93
2022/11/22 05:43:52;;;;;;;;;;;;;;;;;;;;;
2022/11/22 05:47:09;;;;;;;4.05;3.75;;;1.80;99.90;;;;;;4663947;30;20054;-92
2022/11/22 05:50:24;;;;;;;3.70;3.40;;;1.90;99.90;;;;;;4625449;30;20050;-94
2022/11/22 05:53:59;;;;;;;3.53;3.22;;;1.80;99.90;;;;;;4673342;30;20057;-94
2022/11/22 05:57:21;;;;;;;4.40;3.40;;;1.80;99.90;;;;;;4707249;30;20050;-88
2022/11/22 05:59:56;;;;;;;3.97;3.67;;;1.80;99.90;;;;;;4685619;30;20041;-89
2022/11/22 06:02:24;;;;;;;4.05;3.75;;;1.80;99.90;;;;;;4672043;30;20062;-90
2022/11/22 06:04:52;;;;;;;4.07;3.45;;;1.80;99.90;;;;;;4672421;30;20060;-91
2022/11/22 06:07:19;;;;;;;3.72;3.42;;;1.80;99.90;;;;;;4674831;30;20060;-92
2022/11/22 06:09:50;;;;;;;3.80;3.47;;;1.80;99.90;;;;;;4674605;30;20073;-92
2022/11/22 06:12:34;;;;;;;7.07;4.72;;;1.70;99.90;;;;;;4690205;30;20065;-90
2022/11/22 06:15:41;;;;;;;5.97;4.45;;;1.80;99.90;;;;;;4676679;30;20033;-92
2022/11/22 06:19:13;;;;;;;4.28;3.97;;;1.80;99.90;;;;;;4676983;30;20070;-93
2022/11/22 06:22:22;;;;;;;3.83;3.38;;;1.80;99.90;;;;;;4692054;30;20057;-94
2022/11/22 06:24:51;;;;;;;7.47;4.78;;;1.80;99.90;;;;;;4691973;30;20053;-92
2022/11/22 06:27:19;;;;;;;3.83;3.05;;;1.80;99.90;;;;;;4705618;30;20477;-93
2022/11/22 06:29:46;;;;;;;4.20;3.80;;;1.80;99.90;;;;;;4692041;30;20061;-93
2022/11/22 06:32:14;;;;;;;5.43;4.32;;;1.80;99.90;;;;;;4698157;30;20053;-92
2022/11/22 06:35:52;;;;;;;4.68;4.00;;;1.80;99.90;;;;;;4706467;30;20072;-93
2022/11/22 06:38:19;;;;;;;4.43;3.85;;;1.80;99.90;;;;;;4691974;30;20057;-93
2022/11/22 06:40:47;;;;;;;5.30;4.53;;;1.80;99.90;;;;;;4724116;30;20052;-92
2022/11/22 06:43:17;;;;;;;8.10;5.90;;;1.80;99.90;;;;;;4719182;30;20049;-91
2022/11/22 06:45:45;;;;;;;5.97;3.72;;;1.80;99.90;;;;;;4711638;30;20061;-91
2022/11/22 06:48:12;;;;;;;4.15;3.78;;;1.70;99.90;;;;;;4718449;30;20053;-90
2022/11/22 06:50:40;;;;;;;7.60;3.60;;;1.80;99.90;;;;;;4719371;30;20061;-91
2022/11/22 06:53:08;;;;;;;5.07;4.63;;;1.90;99.90;;;;;;4724230;30;20052;-91
2022/11/22 06:56:03;;;;;;;3.83;3.42;;;2.00;99.90;;;;;;4731654;30;20048;-89
2022/11/22 06:58:31;;;;;;;5.55;4.97;;;1.90;99.90;;;;;;4740738;30;20052;-91
2022/11/22 07:01:11;;;;;;;8.63;3.70;;;1.90;99.90;;;;;;4721209;30;20056;-91
2022/11/22 07:03:39;;;;;;;5.97;3.88;;;1.90;99.90;;;;;;4708811;30;20396;-90
2022/11/22 07:06:09;;;;;;;4.70;4.40;;;2.00;99.90;;;;;;4720978;30;20511;-90
2022/11/22 07:08:37;;;;;;;6.38;3.50;;;2.00;99.90;;;;;;4709004;30;20416;-88
2022/11/22 07:11:07;;;;;;;3.88;3.60;;;2.10;99.90;;;;;;4723980;30;20478;-88
2022/11/22 07:13:35;;;;;;;4.80;4.50;;;2.10;99.90;;;;;;4731482;30;20069;-87
2022/11/22 07:16:06;;;;;;;4.38;4.00;;;2.00;99.90;;;;;;4738924;30;20052;-89
2022/11/22 07:18:33;;;;;;;3.72;3.42;;;2.10;99.90;;;;;;4753792;30;20048;-89
2022/11/22 07:21:03;;;;;;;4.20;3.80;;;2.20;99.90;;;;;;4722285;30;20048;-89
2022/11/22 07:23:42;;;;;;;4.40;4.00;;;2.20;99.90;;;;;;4739158;30;20079;-88
2022/11/22 07:26:10;;;;;;;4.50;4.15;;;2.30;99.90;;;;;;4754470;30;20056;-90
2022/11/22 07:28:39;;;;;;;5.30;3.85;;;2.40;99.90;;;;;;4724239;30;20040;-90
2022/11/22 07:31:08;;;;;;;5.22;3.85;;;2.50;99.90;;;;;;4712246;30;20044;-92
2022/11/22 07:33:35;;;;;;;4.85;3.83;;;2.50;99.90;;;;;;4710284;30;20052;-91
2022/11/22 07:36:09;;;;;;;18.48;12.50;;;2.50;99.90;;;;;;4738672;30;20086;-92
2022/11/22 07:38:37;;;;;;;4.07;3.67;;;2.50;99.90;;;;;;4724823;30;20390;-90
2022/11/22 07:41:05;;;;;;;4.75;3.78;;;2.60;99.90;;;;;;4709993;30;20056;-91
2022/11/22 07:43:33;;;;;;;4.18;3.78;;;2.60;99.90;;;;;;4724188;30;20055;-91
2022/11/22 07:46:03;;;;;;;4.32;4.03;;;2.50;99.90;;;;;;4724575;30;20060;-91
2022/11/22 07:48:30;;;;;;;4.15;3.53;;;2.60;99.90;;;;;;4709448;30;20059;-92
2022/11/22 07:51:06;;;;;;;4.50;4.07;;;2.60;99.90;;;;;;4738459;30;20056;-90
2022/11/22 07:53:34;;;;;;;5.30;4.50;;;2.70;99.90;;;;;;4738865;30;20056;-90
2022/11/22 07:56:06;;;;;;;4.63;4.30;;;2.70;99.90;;;;;;4723752;30;20080;-90
2022/11/22 07:58:34;;;;;;;4.88;4.10;;;2.70;99.90;;;;;;4724232;30;20056;-89
2022/11/22 08:01:13;;;;;;;5.22;4.93;;;2.80;99.90;;;;;;4723630;30;20063;-90
2022/11/22 08:03:41;;;;;;;7.05;6.00;;;2.80;99.90;;;;;;4723416;30;20063;-88
2022/11/22 08:06:10;;;;;;;7.85;6.35;;;2.90;99.90;;;;;;4709013;30;20064;-90
2022/11/22 08:08:38;;;;;;;9.40;5.45;;;2.90;99.90;;;;;;4723344;30;20112;-90
2022/11/22 08:11:06;;;;;;;5.90;5.28;;;2.90;99.90;;;;;;4737667;30;20087;-88
2022/11/22 08:13:34;;;;;;;8.00;4.30;;;2.90;99.90;;;;;;4723594;30;20056;-89
2022/11/22 08:16:13;;;;;;;3.67;3.35;;;3.00;99.90;;;;;;4723211;30;20055;-89
2022/11/22 08:18:45;;;;;;;5.63;4.30;;;3.00;99.90;;;;;;4738271;30;20055;-89
2022/11/22 08:21:14;;;;;;;4.18;3.88;;;3.00;99.90;;;;;;4723032;30;20419;-88
2022/11/22 08:23:43;;;;;;;4.28;3.97;;;3.00;99.90;;;;;;4751860;30;20048;-89
2022/11/22 08:26:12;;;;;;;4.53;4.13;;;3.00;99.90;;;;;;4723658;30;20172;-90
2022/11/22 08:28:41;;;;;;;3.88;3.65;;;3.00;99.90;;;;;;4723038;30;20059;-89
2022/11/22 08:31:12;;;;;;;4.60;4.18;;;3.20;99.90;;;;;;4719859;30;20061;-83
2022/11/22 08:33:46;;;;;;;4.95;4.55;;;3.20;99.90;;;;;;4705559;30;20052;-89
2022/11/22 08:36:14;;;;;;;7.53;4.50;;;3.30;99.90;;;;;;4705013;30;20083;-87
2022/11/22 08:38:41;;;;;;;5.60;4.15;;;3.30;99.90;;;;;;4736264;30;20060;-88
2022/11/22 08:41:09;;;;;;;6.63;4.32;;;3.40;99.90;;;;;;4704713;30;20053;-88
2022/11/22 08:43:37;;;;;;;4.80;3.88;;;3.40;99.90;;;;;;4719695;30;20053;-87
2022/11/22 08:46:05;;;;;;;5.28;4.05;;;3.50;99.90;;;;;;4705663;30;20068;-87
2022/11/22 08:48:35;;;;;;;4.90;4.40;;;3.40;99.90;;;;;;4690884;30;20507;-88
2022/11/22 08:51:05;;;;;;;4.10;3.80;;;3.40;99.90;;;;;;4705155;30;20075;-87
2022/11/22 08:53:34;;;;;;;4.93;4.53;;;3.30;99.90;;;;;;4720018;30;20385;-87
2022/11/22 08:56:04;;;;;;;4.90;3.60;;;3.30;99.90;;;;;;4719837;30;20044;-90
2022/11/22 08:58:32;;;;;;;4.50;4.20;;;3.20;99.90;;;;;;4706094;30;20056;-88
2022/11/22 09:01:17;;;;;;;4.75;4.28;;;3.10;99.90;;;;;;4719478;30;20053;-87
2022/11/22 09:03:45;;;;;;;8.90;5.15;;;3.10;99.90;;;;;;4718946;30;20048;-88
2022/11/22 09:06:15;;;;;;;6.43;5.80;;;3.10;99.90;;;;;;4705544;30;20081;-88
2022/11/22 09:09:03;;;;;;;8.15;7.30;;;3.20;99.90;;;;;;4692517;30;20076;-87
2022/11/22 09:11:50;;;;;;;7.53;6.90;;;3.30;99.90;;;;;;4707582;30;20847;-88
2022/11/22 09:14:17;;;;;;;6.22;5.20;;;3.40;99.90;;;;;;4705178;30;20048;-87
2022/11/22 09:16:45;;;;;;;5.22;4.57;;;3.40;99.90;;;;;;4704776;30;20404;-88
2022/11/22 09:19:12;;;;;;;6.75;5.82;;;3.40;99.90;;;;;;4704242;30;20057;-88
2022/11/22 09:21:40;;;;;;;6.45;5.90;;;3.50;99.90;;;;;;4719791;30;20064;-88
2022/11/22 09:24:07;;;;;;;6.05;5.45;;;3.30;99.90;;;;;;4733388;30;20061;-87
2022/11/22 09:26:34;;;;;;;5.82;5.28;;;3.30;99.90;;;;;;4719377;30;20067;-88
2022/11/22 09:29:02;;;;;;;91.88;65.18;;;3.30;99.90;;;;;;4719175;30;20049;-88
2022/11/22 09:31:30;;;;;;;17.15;13.98;;;3.40;99.90;;;;;;4689929;30;20052;-88
2022/11/22 09:33:58;;;;;;;10.00;6.32;;;3.40;99.90;;;;;;4719079;30;20063;-89
2022/11/22 09:36:26;;;;;;;6.00;5.43;;;3.40;99.90;;;;;;4718865;30;20052;-87
2022/11/22 09:38:55;;;;;;;11.68;8.35;;;3.40;99.90;;;;;;4704452;30;20079;-87
2022/11/22 09:41:38;;;;;;;7.63;5.20;;;3.50;99.90;;;;;;4719488;30;20154;-88
2022/11/22 09:44:30;;;;;;;8.70;7.22;;;3.60;99.90;;;;;;4719173;30;20048;-88
2022/11/22 09:47:26;;;;;;;8.00;6.97;;;3.60;99.90;;;;;;4734822;30;20057;-87
2022/11/22 09:50:00;;;;;;;8.90;6.32;;;3.60;99.90;;;;;;4719421;30;20076;-87
2022/11/22 09:52:35;;;;;;;6.93;6.30;;;3.70;99.90;;;;;;4718703;30;20052;-89
2022/11/22 09:55:10;;;;;;;6.65;5.32;;;3.70;99.90;;;;;;4689987;30;20067;-87
2022/11/22 09:57:48;;;;;;;4.85;4.53;;;3.80;99.90;;;;;;4704599;30;20060;-88
2022/11/22 10:00:21;;;;;;;8.02;4.95;;;3.80;99.90;;;;;;4734233;30;20056;-88
2022/11/22 10:03:15;;;;;;;4.10;3.78;;;3.90;99.90;;;;;;4704555;30;20064;-87
2022/11/22 10:05:50;;;;;;;4.28;3.88;;;4.00;99.90;;;;;;4705279;30;20523;-87
2022/11/22 10:08:31;;;;;;;5.05;4.05;;;4.10;99.90;;;;;;4734392;30;20049;-87
2022/11/22 10:11:00;;;;;;;2.65;2.45;;;4.20;99.90;;;;;;4734405;30;20057;-87
2022/11/22 10:13:44;;;;;;;2.45;2.05;;;4.40;99.90;;;;;;4719118;30;20057;-87
2022/11/22 10:16:24;;;;;;;2.60;1.80;;;4.60;99.90;;;;;;4718778;30;20057;-87
2022/11/22 10:19:17;;;;;;;9.27;4.28;;;4.70;99.90;;;;;;4718985;30;20062;-87
2022/11/22 10:21:47;;;;;;;4.25;2.08;;;4.80;99.90;;;;;;4678356;30;20063;-87
2022/11/22 10:24:17;;;;;;;7.20;2.13;;;4.90;99.90;;;;;;4734197;30;20049;-86
2022/11/22 10:26:45;;;;;;;6.60;2.10;;;5.00;99.90;;;;;;4718679;30;20303;-88
2022/11/22 10:29:27;;;;;;;1.60;1.50;;;5.00;99.90;;;;;;4717762;30;20067;-87
2022/11/22 10:32:10;;;;;;;1.40;1.30;;;5.00;99.90;;;;;;4718369;30;20060;-87
2022/11/22 10:34:56;;;;;;;2.58;1.77;;;5.10;99.90;;;;;;4718957;30;20436;-87
2022/11/22 10:37:42;;;;;;;1.63;1.52;;;5.10;99.90;;;;;;4717967;30;20083;-87
2022/11/22 10:40:09;;;;;;;2.75;2.53;;;5.10;99.90;;;;;;4718602;30;20057;-88
2022/11/22 10:43:06;;;;;;;4.93;2.83;;;5.20;99.90;;;;;;4709182;30;20091;-87
2022/11/22 10:45:56;;;;;;;10.52;2.47;;;5.20;99.90;;;;;;4703674;30;20276;-87
2022/11/22 10:48:39;;;;;;;17.08;4.32;;;5.20;99.90;;;;;;4706426;30;20091;-87
2022/11/22 10:51:15;;;;;;;1.75;1.65;;;5.30;99.90;;;;;;4724449;30;20063;-86
2022/11/22 10:54:21;;;;;;;3.17;1.65;;;5.20;99.90;;;;;;4724819;30;20534;-87
2022/11/22 10:56:54;;;;;;;3.55;1.90;;;5.30;99.90;;;;;;4678942;30;20060;-87
2022/11/22 10:59:30;;;;;;;2.58;1.45;;;5.30;99.90;;;;;;4736847;30;20056;-87
2022/11/22 11:02:16;;;;;;;4.65;1.83;;;5.30;99.90;;;;;;4737907;30;20059;-86
2022/11/22 11:04:45;;;;;;;3.15;2.80;;;5.30;99.90;;;;;;4723882;30;20056;-87
2022/11/22 11:07:19;;;;;;;13.73;3.00;;;5.30;99.90;;;;;;4724229;30;20526;-86
2022/11/22 11:10:17;;;;;;;3.00;1.95;;;5.30;99.90;;;;;;4738655;30;20052;-87
2022/11/22 11:13:06;;;;;;;6.53;1.52;;;5.30;99.90;;;;;;4716767;30;20048;-86
2022/11/22 11:15:53;;;;;;;8.25;2.15;;;5.30;99.90;;;;;;4738247;30;20052;-87
2022/11/22 11:18:25;;;;;;;1.38;1.27;;;5.30;99.90;;;;;;4739018;30;20064;-87
2022/11/22 11:20:53;;;;;;;9.88;2.55;;;5.30;99.90;;;;;;4738243;30;20048;-87
2022/11/22 11:23:20;;;;;;;2.55;2.38;;;5.30;99.90;;;;;;4737992;30;20060;-84
2022/11/22 11:25:49;;;;;;;4.57;1.98;;;5.30;99.90;;;;;;4751337;30;20045;-87
2022/11/22 11:28:26;;;;;;;6.07;2.00;;;5.30;99.90;;;;;;4721130;30;20053;-88
2022/11/22 11:31:21;;;;;;;5.15;1.65;;;5.30;99.90;;;;;;4735342;30;20060;-88
2022/11/22 11:33:49;;;;;;;3.00;1.35;;;5.20;99.90;;;;;;4690013;30;20064;-86
2022/11/22 11:36:23;;;;;;;4.03;1.95;;;5.20;99.90;;;;;;4705773;30;20048;-88
2022/11/22 11:38:54;;;;;;;13.32;4.78;;;5.00;99.90;;;;;;4706733;30;20059;-87
2022/11/22 11:41:29;;;;;;;3.53;1.88;;;5.00;99.90;;;;;;4719303;30;20049;-87
2022/11/22 11:44:03;;;;;;;12.55;2.50;;;4.90;99.90;;;;;;4705606;30;20060;-85
2022/11/22 11:46:39;;;;;;;4.43;1.95;;;4.90;99.90;;;;;;4706169;30;20061;-86
2022/11/22 11:49:14;;;;;;;2.05;1.55;;;4.90;99.90;;;;;;4714502;30;20067;-87
2022/11/22 11:51:52;;;;;;;2.05;1.10;;;4.80;99.90;;;;;;4737754;30;20489;-87
2022/11/22 11:54:22;;;;;;;8.52;2.92;;;4.90;99.90;;;;;;4723670;30;20056;-87
2022/11/22 11:56:52;;;;;;;5.45;1.88;;;5.00;99.90;;;;;;4737832;30;20059;-87
2022/11/22 11:59:21;;;;;;;2.72;1.38;;;5.10;99.90;;;;;;4721589;30;20059;-87
2022/11/22 12:01:56;;;;;;;5.47;1.40;;;5.20;99.90;;;;;;4723663;30;20064;-88
2022/11/22 12:04:28;;;;;;;5.32;1.88;;;5.20;99.90;;;;;;4708631;30;20052;-87
2022/11/22 12:07:22;;;;;;;3.85;2.17;;;5.20;99.90;;;;;;4708471;30;20060;-87
2022/11/22 12:09:52;;;;;;;4.53;1.77;;;5.30;99.90;;;;;;4709813;30;20061;-88
2022/11/22 12:12:23;;;;;;;3.30;1.48;;;5.20;99.90;;;;;;4719791;30;20059;-88
2022/11/22 12:15:18;;;;;;;2.90;1.65;;;5.20;99.90;;;;;;4720124;30;20064;-89
2022/11/22 12:17:59;;;;;;;2.47;1.80;;;5.20;99.90;;;;;;4698324;30;20164;-88
2022/11/22 12:21:01;;;;;;;2.08;1.75;;;5.20;99.90;;;;;;4705965;30;20052;-90
2022/11/22 12:23:35;;;;;;;2.65;1.40;;;5.20;99.90;;;;;;4694193;30;20049;-89
2022/11/22 12:26:02;;;;;;;3.90;1.60;;;5.30;99.90;;;;;;4721781;30;20063;-91
2022/11/22 12:28:31;;;;;;;1.67;1.60;;;5.30;99.90;;;;;;4709327;30;20052;-89
2022/11/22 12:31:06;;;;;;;3.40;1.40;;;5.30;99.90;;;;;;4708918;30;20430;-90
2022/11/22 12:33:46;;;;;;;1.55;1.45;;;5.20;99.90;;;;;;4710234;30;20067;-90
2022/11/22 12:36:42;;;;;;;4.07;1.63;;;5.20;99.90;;;;;;4723300;30;20081;-90
2022/11/22 12:39:16;;;;;;;6.25;1.23;;;5.20;99.90;;;;;;4723202;30;20063;-90
2022/11/22 12:41:47;;;;;;;2.22;1.52;;;5.20;99.90;;;;;;4724220;30;20409;-90
2022/11/22 12:44:19;;;;;;;1.60;1.08;;;5.10;99.90;;;;;;4724000;30;20048;-91
2022/11/22 12:46:57;;;;;;;1.52;1.42;;;5.10;99.90;;;;;;4709492;30;20063;-90
2022/11/22 12:49:41;;;;;;;3.15;1.65;;;5.00;99.90;;;;;;4736935;30;20392;-91
2022/11/22 12:52:33;;;;;;;3.15;1.73;;;4.90;99.90;;;;;;4708814;30;20052;-90
2022/11/22 12:55:25;;;;;;;5.40;1.77;;;4.80;99.90;;;;;;4708913;30;20483;-89
2022/11/22 12:58:32;;;;;;;6.47;1.33;;;4.70;99.90;;;;;;4723950;30;20407;-90
2022/11/22 13:01:15;;;;;;;1.55;1.27;;;4.70;99.90;;;;;;4708628;30;20055;-90
2022/11/22 13:03:53;;;;;;;2.15;1.58;;;4.70;99.90;;;;;;4722779;30;20048;-90
2022/11/22 13:06:24;;;;;;;2.22;1.63;;;4.80;99.90;;;;;;4738002;30;20056;-90
2022/11/22 13:08:56;;;;;;;1.95;1.35;;;4.80;99.90;;;;;;4708339;30;20045;-90
2022/11/22 13:11:37;;;;;;;1.63;1.35;;;4.70;99.90;;;;;;4737191;30;20048;-90
2022/11/22 13:14:11;;;;;;;1.55;1.45;;;4.70;99.90;;;;;;4737093;30;20067;-92
2022/11/22 13:16:48;;;;;;;;;;;4.70;99.90;;;;;;4737473;30;20519;-90
2022/11/22 13:19:18;;;;;;;1.70;1.48;;;4.70;99.90;;;;;;4736966;30;19933;-90
2022/11/22 13:22:10;;;;;;;5.37;1.47;;;4.60;99.90;;;;;;4705482;30;20056;-91
2022/11/22 13:25:12;;;;;;;1.20;1.10;;;4.60;99.90;;;;;;4705242;30;20507;-88
2022/11/22 13:27:44;;;;;;;0.85;0.85;;;4.50;99.90;;;;;;4705175;30;20053;-89
2022/11/22 13:30:23;;;;;;;1.38;1.15;;;4.50;99.90;;;;;;4719836;30;20064;-89
2022/11/22 13:33:23;;;;;;;2.17;1.60;;;4.50;99.90;;;;;;4720063;30;20052;-91
2022/11/22 13:35:50;;;;;;;1.52;1.42;;;4.50;99.90;;;;;;4719774;30;20045;-90
2022/11/22 13:38:20;;;;;;;2.55;1.42;;;4.40;99.90;;;;;;4718210;30;20052;-91
2022/11/22 13:40:50;;;;;;;2.42;1.35;;;4.40;99.90;;;;;;4722597;30;20052;-90
2022/11/22 13:43:17;;;;;;;1.48;1.38;;;4.40;99.90;;;;;;4736834;30;20048;-90
2022/11/22 13:45:54;;;;;;;1.55;1.45;;;4.30;99.90;;;;;;4736956;30;20048;-91
2022/11/22 13:48:40;;;;;;;1.83;1.25;;;4.30;99.90;;;;;;4722362;30;20048;-90
2022/11/22 13:51:12;;;;;;;2.30;1.08;;;4.30;99.90;;;;;;4736777;30;20060;-92
2022/11/22 13:53:42;;;;;;;1.60;1.10;;;4.30;99.90;;;;;;4722605;30;20048;-90
2022/11/22 13:56:18;;;;;;;1.10;1.10;;;4.30;99.90;;;;;;4736745;30;20048;-90
2022/11/22 13:59:15;;;;;;;1.52;1.42;;;4.30;99.90;;;;;;4722277;30;20118;-88
2022/11/22 14:01:42;;;;;;;2.28;1.17;;;4.40;99.90;;;;;;4708285;30;20048;-88
2022/11/22 14:04:18;;;;;;;0.90;0.90;;;4.40;99.90;;;;;;4735092;30;20056;-89
2022/11/22 14:06:51;;;;;;;2.08;1.05;;;4.30;99.90;;;;;;4737022;30;20052;-89
2022/11/22 14:09:36;;;;;;;1.63;1.52;;;4.30;99.90;;;;;;4718079;30;20056;-89
2022/11/22 14:12:09;;;;;;;1.73;1.20;;;4.30;99.90;;;;;;4731445;30;20519;-89
2022/11/22 14:14:53;;;;;;;4.70;1.52;;;4.30;99.90;;;;;;4690449;30;20623;-90
2022/11/22 14:17:41;;;;;;;2.05;1.77;;;4.30;99.90;;;;;;4721231;30;20064;-89
2022/11/22 14:20:33;;;;;;;2.60;1.23;;;4.30;99.90;;;;;;4717883;30;20065;-88
2022/11/22 14:23:22;;;;;;;3.60;3.35;;;4.30;99.90;;;;;;4705581;30;20064;-88
2022/11/22 14:26:21;;;;;;;4.90;1.90;;;4.30;99.90;;;;;;4707910;30;20079;-89
2022/11/22 14:29:11;;;;;;;2.58;1.77;;;4.30;99.90;;;;;;4677334;30;20431;-89
2022/11/22 14:31:39;;;;;;;1.98;1.40;;;4.30;99.90;;;;;;4716315;30;20055;-89
2022/11/22 14:34:21;;;;;;;1.92;1.83;;;4.30;99.90;;;;;;4696355;30;20674;-90
2022/11/22 14:37:17;;;;;;;2.47;1.87;;;4.20;99.90;;;;;;4710695;30;20060;-89
2022/11/22 14:39:52;;;;;;;2.25;1.77;;;4.20;99.90;;;;;;4739361;30;20044;-90
2022/11/22 14:42:34;;;;;;;1.88;1.75;;;4.30;99.90;;;;;;4736594;30;20408;-89
2022/11/22 14:45:04;;;;;;;1.55;1.45;;;4.20;99.90;;;;;;4721390;30;20408;-89
2022/11/22 14:47:34;;;;;;;2.55;2.35;;;4.20;99.90;;;;;;4707148;30;20069;-89
2022/11/22 14:50:08;;;;;;;3.10;2.85;;;4.10;99.90;;;;;;4710428;30;20507;-89
2022/11/22 14:52:35;;;;;;;3.47;2.25;;;4.20;99.90;;;;;;4723198;30;20048;-89
2022/11/22 14:55:07;;;;;;;1.90;1.80;;;4.20;99.90;;;;;;4738922;30;20056;-88
2022/11/22 14:57:36;;;;;;;2.35;1.80;;;4.10;99.90;;;;;;4710142;30;20060;-89
2022/11/22 15:00:07;;;;;;;3.47;2.38;;;4.10;99.90;;;;;;4724466;30;20059;-89
2022/11/22 15:03:18;;;;;;;4.75;2.35;;;4.10;99.90;;;;;;4724932;30;20403;-88
2022/11/22 15:06:17;;;;;;;2.38;1.70;;;4.00;99.90;;;;;;4710703;30;20060;-82
2022/11/22 15:09:31;;;;;;;2.72;1.95;;;4.10;99.90;;;;;;4723768;30;20053;-82
2022/11/22 15:13:03;;;;;;;7.18;2.63;;;4.10;99.90;;;;;;4727434;30;20063;-82
2022/11/22 15:15:39;;;;;;;2.20;2.10;;;4.10;99.90;;;;;;4717206;30;20049;-83
2022/11/22 15:18:37;;;;;;;2.35;1.45;;;4.00;99.90;;;;;;4709878;30;20052;-83
2022/11/22 15:21:29;;;;;;;2.15;2.05;;;4.10;99.90;;;;;;4736418;30;20434;-82
2022/11/22 15:24:30;;;;;;;1.85;1.75;;;4.00;99.90;;;;;;4736438;30;20044;-83
2022/11/22 15:27:19;;;;;;;1.90;1.80;;;4.00;99.90;;;;;;4723270;30;20052;-83
2022/11/22 15:30:20;;;;;;;2.33;1.85;;;4.00;99.90;;;;;;4753373;30;20044;-83
2022/11/22 15:33:35;;;;;;;1.80;1.67;;;3.90;99.90;;;;;;4723101;30;20068;-82
2022/11/22 15:36:41;;;;;;;1.75;1.65;;;3.90;99.90;;;;;;4753643;30;20071;-82
2022/11/22 15:39:32;;;;;;;2.55;2.35;;;3.90;99.90;;;;;;4735939;30;20045;-83
2022/11/22 15:42:20;;;;;;;;;;;3.90;99.90;;;;;;4723724;30;20052;-83
2022/11/22 15:45:12;;;;;;;2.03;1.92;;;3.90;99.90;;;;;;4720219;30;19984;-82
2022/11/22 15:48:03;;;;;;;3.58;1.83;;;3.80;99.90;;;;;;4747407;30;20037;-83
2022/11/22 15:51:05;;;;;;;4.60;2.45;;;3.80;99.90;;;;;;4738351;30;20503;-82
2022/11/22 15:54:04;;;;;;;6.43;2.25;;;3.80;99.90;;;;;;4727851;30;20056;-83
2022/11/22 15:56:57;;;;;;;2.50;2.28;;;3.80;99.90;;;;;;4753412;30;20052;-82
2022/11/22 15:59:43;;;;;;;3.88;2.92;;;3.70;99.90;;;;;;4737471;30;20067;-83
2022/11/22 16:02:28;;;;;;;2.97;2.63;;;3.70;99.90;;;;;;4745978;30;20048;-82
2022/11/22 16:05:04;;;;;;;2.80;2.60;;;3.70;99.90;;;;;;4735516;30;20061;-82
2022/11/22 16:07:52;;;;;;;3.00;2.72;;;3.70;99.90;;;;;;4748148;30;20407;-83
2022/11/22 16:10:32;;;;;;;4.32;2.78;;;3.70;99.90;;;;;;4753571;30;20060;-83
2022/11/22 16:13:13;;;;;;;2.85;2.50;;;3.70;99.90;;;;;;4753515;30;20041;-83
2022/11/22 16:15:40;;;;;;;6.53;4.95;;;3.70;99.90;;;;;;4753201;30;20372;-83
2022/11/22 16:18:25;;;;;;;3.25;2.95;;;3.70;99.90;;;;;;4753952;30;20439;-83
2022/11/22 16:20:58;;;;;;;3.17;2.20;;;3.70;99.90;;;;;;4753044;30;20040;-83
2022/11/22 16:23:32;;;;;;;2.70;2.50;;;3.70;99.90;;;;;;4753128;30;20056;-82
2022/11/22 16:26:23;;;;;;;4.10;3.70;;;3.60;99.90;;;;;;4753382;30;20060;-83
2022/11/22 16:28:52;;;;;;;8.33;5.53;;;3.70;99.90;;;;;;4752864;30;20125;-83
2022/11/22 16:31:23;;;;;;;3.83;3.13;;;3.70;99.90;;;;;;4752893;30;20048;-82
2022/11/22 16:33:57;;;;;;;3.67;3.38;;;3.60;99.90;;;;;;4752957;30;20389;-82
2022/11/22 16:36:28;;;;;;;5.55;4.70;;;3.60;99.90;;;;;;4752473;30;20052;-83
2022/11/22 16:38:55;;;;;;;3.75;3.42;;;3.50;99.90;;;;;;4736924;30;20052;-82
2022/11/22 16:41:25;;;;;;;5.47;2.92;;;3.50;99.90;;;;;;4753179;30;20132;-83
2022/11/22 16:43:55;;;;;;;2.70;2.50;;;3.50;99.90;;;;;;4752622;30;20059;-83
2022/11/22 16:46:22;;;;;;;3.85;2.60;;;3.50;99.90;;;;;;4752640;30;20408;-83
2022/11/22 16:48:50;;;;;;;5.85;3.20;;;3.50;99.90;;;;;;4752188;30;20048;-83
2022/11/22 16:51:23;;;;;;;2.67;2.50;;;3.50;99.90;;;;;;4752688;30;20059;-83
2022/11/22 16:53:54;;;;;;;7.28;4.03;;;3.50;99.90;;;;;;4753205;30;20048;-83
2022/11/22 16:56:23;;;;;;;4.30;3.63;;;3.50;99.90;;;;;;4752301;30;20060;-83
2022/11/22 16:58:53;;;;;;;4.85;4.43;;;3.50;99.90;;;;;;4737117;30;20661;-83
2022/11/22 17:01:24;;;;;;;10.35;2.97;;;3.40;99.90;;;;;;4698815;30;20511;-83
2022/11/22 17:03:54;;;;;;;4.73;3.60;;;3.50;99.90;;;;;;4736545;30;20043;-83
2022/11/22 17:06:24;;;;;;;7.15;4.10;;;3.40;99.90;;;;;;4752525;30;20314;-83
2022/11/22 17:08:54;;;;;;;3.38;3.05;;;3.50;99.90;;;;;;4736712;30;20492;-83
2022/11/22 17:11:28;;;;;;;6.07;2.40;;;3.40;99.90;;;;;;4752358;30;20419;-83
2022/11/22 17:13:55;;;;;;;3.28;2.97;;;3.40;99.90;;;;;;4753106;30;20052;-83
2022/11/22 17:16:23;;;;;;;3.92;2.88;;;3.40;99.90;;;;;;4736274;30;20063;-83
2022/11/22 17:18:51;;;;;;;3.22;2.67;;;3.40;99.90;;;;;;4736859;30;20440;-83
2022/11/22 17:21:27;;;;;;;5.13;3.63;;;3.40;99.90;;;;;;4736129;30;20403;-83
2022/11/22 17:24:14;;;;;;;3.83;3.53;;;3.40;99.90;;;;;;4752072;30;20048;-83
2022/11/22 17:26:41;;;;;;;5.05;4.55;;;3.30;99.90;;;;;;4736473;30;20063;-83
2022/11/22 17:29:09;;;;;;;13.27;5.57;;;3.30;99.90;;;;;;4751859;30;20071;-83
2022/11/22 17:31:56;;;;;;;5.57;5.07;;;3.40;99.90;;;;;;4721690;30;20040;-83
2022/11/22 17:34:23;;;;;;;5.85;5.28;;;3.40;99.90;;;;;;4752218;30;20052;-83
2022/11/22 17:36:51;;;;;;;6.00;4.00;;;3.40;99.90;;;;;;4735882;30;20044;-83
2022/11/22 17:39:18;;;;;;;18.45;5.55;;;3.50;99.90;;;;;;4751050;30;20490;-83
2022/11/22 17:41:48;;;;;;;22.13;6.60;;;3.40;99.90;;;;;;4752522;30;20056;-83
2022/11/22 17:44:16;;;;;;;7.15;5.35;;;3.40;99.90;;;;;;4752081;30;20060;-83
2022/11/22 17:46:45;;;;;;;5.68;3.92;;;3.40;99.90;;;;;;4752141;30;20056;-83
2022/11/22 17:49:13;;;;;;;30.08;9.27;;;3.40;99.90;;;;;;4751428;30;20052;-83
2022/11/22 17:51:43;;;;;;;10.40;6.38;;;3.40;99.90;;;;;;4721680;30;20044;-83
2022/11/22 17:54:10;;;;;;;5.25;4.72;;;3.40;99.90;;;;;;4752495;30;20044;-83
2022/11/22 17:56:37;;;;;;;9.27;5.47;;;3.40;99.90;;;;;;4735229;30;20048;-83
2022/11/22 17:59:05;;;;;;;6.07;5.35;;;3.40;99.90;;;;;;4735667;30;20064;-83
2022/11/22 18:01:35;;;;;;;5.28;4.78;;;3.50;99.90;;;;;;4736350;30;20061;-88
2022/11/22 18:04:13;;;;;;;12.85;5.43;;;3.30;99.90;;;;;;4721362;30;20483;-86
2022/11/22 18:06:41;;;;;;;5.53;5.00;;;3.40;99.90;;;;;;4736761;30;20411;-86
2022/11/22 18:09:08;;;;;;;5.65;4.95;;;3.50;99.90;;;;;;4729657;30;20072;-85
2022/11/22 18:11:35;;;;;;;6.85;5.45;;;3.50;99.90;;;;;;4715532;30;20049;-86
2022/11/22 18:14:03;;;;;;;6.38;5.05;;;3.40;99.90;;;;;;4715579;30;20057;-86
2022/11/22 18:16:30;;;;;;;34.75;7.82;;;3.40;99.90;;;;;;4700317;30;20060;-86
2022/11/22 18:18:59;;;;;;;7.95;5.53;;;3.30;99.90;;;;;;4700461;30;20056;-86
2022/11/22 18:21:28;;;;;;;5.15;4.25;;;3.30;99.90;;;;;;4716080;30;20053;-86
2022/11/22 18:23:57;;;;;;;5.93;4.78;;;3.30;99.90;;;;;;4700674;30;20049;-86
2022/11/22 18:26:25;;;;;;;5.65;5.15;;;3.30;99.90;;;;;;4715650;30;20061;-86
2022/11/22 18:29:10;;;;;;;9.05;6.60;;;3.30;99.90;;;;;;4700855;30;20138;-86
2022/11/22 18:31:58;;;;;;;12.13;6.47;;;3.30;99.90;;;;;;4715807;30;20700;-86